Time;durP1;ratioP1;P1;durP2;ratioP2;P2;SDS_P1;SDS_P2;PMS_P1;PMS_P2;Temp;Humidity;BMP_temperature;BMP_pressure;BME280_temperature;BME280_humidity;BME280_pressure;Samples;Min_cycle;Max_cycle;Signal;HPM_P1;HPM_P2
2022/07/14 00:04:17;;;;;;;;;;;;;;;22.21;80.56;100280.72;10504817;28;19925;-70
2022/07/14 00:09:20;;;;;;;;;;;;;;;22.15;80.72;100283.75;10504743;28;19931;-68
2022/07/14 00:14:23;;;;;;;;;;;;;;;22.15;81.20;100270.50;10504474;28;19928;-66
2022/07/14 00:19:28;;;;;;;;;;;;;;;22.09;81.98;100267.38;10504640;28;20053;-66
2022/07/14 00:24:31;;;;;;;;;;;;;;;21.97;83.08;100262.81;10504113;28;19936;-68
2022/07/14 00:29:35;;;;;;;;;;;;;;;21.87;83.83;100265.13;10504074;28;19935;-67
2022/07/14 00:34:39;;;;;;;;;;;;;;;21.76;84.44;100273.63;10503927;28;19925;-66
2022/07/14 00:39:57;;;;;;;;;;;;;;;21.72;84.74;100273.91;10503563;28;19924;-66
2022/07/14 00:45:00;;;;;;;;;;;;;;;21.65;84.99;100257.56;10503893;28;20341;-67
2022/07/14 00:50:06;;;;;;;;;;;;;;;21.53;86.26;100252.13;10503164;28;20262;-71
2022/07/14 00:55:15;;;;;;;;;;;;;;;21.43;87.25;100258.84;10503128;28;19934;-67
2022/07/14 01:00:18;;;;;;;;;;;;;;;21.35;87.22;100261.06;10502891;28;20264;-68
2022/07/14 01:05:22;;;;;;;;;;;;;;;21.33;86.55;100255.03;10502668;28;19924;-67
2022/07/14 01:10:25;;;;;;;;;;;;;;;21.32;86.28;100266.50;10502413;28;20223;-67
2022/07/14 01:15:28;;;;;;;;;;;;;;;21.24;87.04;100269.59;10502291;28;19925;-67
2022/07/14 01:20:33;;;;;;;;;;;;;;;21.19;86.80;100268.13;10501763;28;19929;-68
2022/07/14 01:25:38;;;;;;;;;;;;;;;21.17;87.28;100270.00;10501958;28;19936;-67
2022/07/14 01:30:41;;;;;;;;;;;;;;;21.06;88.37;100272.38;10501763;28;19931;-69
2022/07/14 01:35:44;;;;;;;;;;;;;;;21.01;88.19;100266.47;10501845;28;19928;-66
2022/07/14 01:40:48;;;;;;;;;;;;;;;20.99;88.67;100268.34;10501393;28;20341;-73
2022/07/14 01:45:51;;;;;;;;;;;;;;;21.01;87.91;100264.72;10501459;28;19925;-70
2022/07/14 01:50:54;;;;;;;;;;;;;;;20.97;88.42;100265.75;10500530;28;19940;-66
2022/07/14 01:55:58;;;;;;;;;;;;;;;20.91;88.40;100260.84;10500992;28;19931;-69
2022/07/14 02:06:22;;;;;;;;;;;;;;;20.87;88.48;100253.16;10501138;28;19932;-65
2022/07/14 02:16:47;;;;;;;;;;;;;;;20.80;89.18;100267.59;10500939;28;19947;-67
2022/07/14 02:21:51;;;;;;;;;;;;;;;20.70;89.88;100267.25;10500307;28;19924;-69
2022/07/14 02:26:55;;;;;;;;;;;;;;;20.67;89.14;100278.78;10500435;28;19938;-67
2022/07/14 02:31:58;;;;;;;;;;;;;;;20.79;87.88;100279.97;10500463;28;19961;-66
2022/07/14 02:37:01;;;;;;;;;;;;;;;20.83;87.31;100283.28;10500720;28;19950;-68
2022/07/14 02:42:05;;;;;;;;;;;;;;;20.86;87.08;100277.84;10500375;28;19935;-67
2022/07/14 02:47:08;;;;;;;;;;;;;;;20.89;86.74;100273.25;10500307;28;19924;-69
2022/07/14 02:52:11;;;;;;;;;;;;;;;20.89;86.58;100278.53;10500218;28;19924;-70
2022/07/14 02:57:16;;;;;;;;;;;;;;;20.91;86.46;100274.03;10500095;28;19924;-69
2022/07/14 03:02:19;;;;;;;;;;;;;;;20.88;86.73;100276.81;10504768;28;19924;-67
2022/07/14 03:07:22;;;;;;;;;;;;;;;20.89;86.34;100277.66;10507829;28;19924;-66
2022/07/14 03:12:27;;;;;;;;;;;;;;;20.90;86.62;100287.31;10507116;28;20342;-68
2022/07/14 03:17:30;;;;;;;;;;;;;;;20.94;86.26;100281.78;10507118;28;19924;-65
2022/07/14 03:22:35;;;;;;;;;;;;;;;20.90;86.20;100285.50;10506349;28;19975;-68
2022/07/14 03:27:40;;;;;;;;;;;;;;;20.89;86.35;100294.38;10506587;28;19954;-67
2022/07/14 03:32:43;;;;;;;;;;;;;;;20.87;86.01;100300.63;10506331;28;19929;-67
2022/07/14 03:37:46;;;;;;;;;;;;;;;20.84;86.79;100316.63;10506190;28;19924;-65
2022/07/14 03:43:06;;;;;;;;;;;;;;;20.85;86.72;100307.78;10505848;28;19924;-66
2022/07/14 03:48:09;;;;;;;;;;;;;;;20.87;86.75;100313.84;10506002;28;20239;-66
2022/07/14 03:53:12;;;;;;;;;;;;;;;20.92;86.65;100312.66;10505677;28;19924;-68
2022/07/14 03:58:17;;;;;;;;;;;;;;;20.94;86.49;100312.56;10505515;28;19990;-66
2022/07/14 04:03:20;;;;;;;;;;;;;;;20.87;86.73;100309.41;10505063;28;20338;-66
2022/07/14 04:08:23;;;;;;;;;;;;;;;20.90;86.33;100308.41;10505048;28;19931;-66
2022/07/14 04:13:29;;;;;;;;;;;;;;;20.93;85.66;100309.09;10503954;28;19924;-67
2022/07/14 04:18:32;;;;;;;;;;;;;;;20.87;85.59;100311.19;10504621;28;20338;-66
2022/07/14 04:23:35;;;;;;;;;;;;;;;20.82;85.72;100306.19;10504043;28;20263;-66
2022/07/14 04:28:42;;;;;;;;;;;;;;;20.85;85.48;100311.28;10504603;28;19925;-66
2022/07/14 04:33:45;;;;;;;;;;;;;;;20.87;85.28;100305.91;10504004;28;19931;-68
2022/07/14 04:38:48;;;;;;;;;;;;;;;20.86;85.06;100309.50;10503599;28;19993;-66
2022/07/14 04:43:53;;;;;;;;;;;;;;;20.89;84.99;100304.06;10503453;28;20249;-67
2022/07/14 04:54:17;;;;;;;;;;;;;;;20.89;85.30;100304.91;10503149;28;20261;-68
2022/07/14 04:59:21;;;;;;;;;;;;;;;20.93;85.32;100305.59;10502765;28;19924;-68
2022/07/14 05:04:24;;;;;;;;;;;;;;;20.94;85.35;100302.88;10502518;28;19924;-65
2022/07/14 05:09:32;;;;;;;;;;;;;;;21.00;85.05;100299.09;10502392;28;19924;-70
2022/07/14 05:14:36;;;;;;;;;;;;;;;20.97;84.44;100302.72;10502302;28;19925;-70
2022/07/14 05:19:39;;;;;;;;;;;;;;;21.07;83.67;100303.94;10501915;28;19931;-66
2022/07/14 05:24:43;;;;;;;;;;;;;;;21.12;82.93;100298.44;10501709;28;19924;-67
2022/07/14 05:29:47;;;;;;;;;;;;;;;21.12;82.67;100309.00;10501665;28;20342;-66
2022/07/14 05:34:50;;;;;;;;;;;;;;;21.12;82.51;100295.81;10501749;28;19970;-67
2022/07/14 05:39:53;;;;;;;;;;;;;;;21.12;82.94;100303.72;10501621;28;19942;-67
2022/07/14 05:44:57;;;;;;;;;;;;;;;21.16;83.45;100313.16;10501389;28;20011;-66
2022/07/14 05:50:00;;;;;;;;;;;;;;;21.19;83.33;100313.03;10501264;28;19928;-67
2022/07/14 05:55:03;;;;;;;;;;;;;;;21.20;83.60;100320.00;10501091;28;20069;-66
2022/07/14 06:00:09;;;;;;;;;;;;;;;21.20;83.48;100327.91;10500953;28;19928;-71
2022/07/14 06:05:12;;;;;;;;;;;;;;;21.15;83.17;100327.31;10501396;28;19924;-67
2022/07/14 06:10:15;;;;;;;;;;;;;;;21.17;83.10;100328.09;10501093;28;19955;-68
2022/07/14 06:15:19;;;;;;;;;;;;;;;21.19;83.19;100328.84;10500830;28;19925;-65
2022/07/14 06:20:22;;;;;;;;;;;;;;;21.25;83.04;100320.59;10500573;28;19935;-70
2022/07/14 06:25:25;;;;;;;;;;;;;;;21.32;82.62;100325.47;10500639;28;19935;-67
2022/07/14 06:30:30;;;;;;;;;;;;;;;21.31;82.82;100325.56;10500524;28;19956;-67
2022/07/14 06:35:33;;;;;;;;;;;;;;;21.33;82.19;100323.69;10502215;28;20360;-68
2022/07/14 06:40:56;;;;;;;;;;;;;;;21.35;81.45;100319.16;10508254;28;20015;-67
2022/07/14 06:46:01;;;;;;;;;;;;;;;21.40;81.20;100323.25;10508098;28;20429;-69
2022/07/14 06:51:04;;;;;;;;;;;;;;;21.44;80.40;100323.94;10508009;28;19924;-69
2022/07/14 06:56:10;;;;;;;;;;;;;;;21.47;78.86;100329.91;10507966;28;19947;-65
2022/07/14 07:01:14;;;;;;;;;;;;;;;21.52;78.18;100324.34;10507311;28;20342;-70
2022/07/14 07:11:38;;;;;;;;;;;;;;;21.65;78.12;100325.38;10507108;28;20423;-67
2022/07/14 07:16:44;;;;;;;;;;;;;;;21.63;76.98;100311.41;10507086;28;19924;-68
2022/07/14 07:21:48;;;;;;;;;;;;;;;21.66;76.62;100314.72;10506754;28;19928;-66
2022/07/14 07:26:51;;;;;;;;;;;;;;;21.77;76.54;100306.19;10506790;28;20338;-67
2022/07/14 07:31:55;;;;;;;;;;;;;;;21.84;76.38;100315.53;10506138;28;20046;-67
2022/07/14 07:36:58;;;;;;;;;;;;;;;21.87;76.06;100307.41;10506281;28;19977;-68
2022/07/14 07:42:21;;;;;;;;;;;;;;;21.91;75.71;100295.75;10505969;28;19924;-68
2022/07/14 07:47:26;;;;;;;;;;;;;;;21.99;74.64;100309.34;10504309;28;20385;-66
2022/07/14 07:52:29;;;;;;;;;;;;;;;22.11;74.81;100295.41;10505749;28;19924;-68
2022/07/14 07:57:32;;;;;;;;;;;;;;;22.19;73.89;100300.28;10505624;28;19946;-66
2022/07/14 08:02:36;;;;;;;;;;;;;;;22.25;73.23;100303.41;10505601;28;19931;-67
2022/07/14 08:07:39;;;;;;;;;;;;;;;22.32;71.96;100303.88;10504879;28;19924;-64
2022/07/14 08:12:42;;;;;;;;;;;;;;;22.38;71.17;100301.72;10504787;28;19929;-68
2022/07/14 08:17:49;;;;;;;;;;;;;;;22.43;69.83;100312.06;10504544;28;19925;-68
2022/07/14 08:22:52;;;;;;;;;;;;;;;22.37;69.00;100320.34;10504038;28;19924;-67
2022/07/14 08:27:55;;;;;;;;;;;;;;;22.40;68.38;100313.06;10504188;28;19925;-70
2022/07/14 08:32:59;;;;;;;;;;;;;;;22.51;68.09;100307.16;10504243;28;20360;-68
2022/07/14 08:38:03;;;;;;;;;;;;;;;22.58;67.76;100317.31;10503626;28;19960;-65
2022/07/14 08:43:14;;;;;;;;;;;;;;;22.59;67.29;100310.25;10503504;28;19925;-68
2022/07/14 08:48:19;;;;;;;;;;;;;;;22.70;67.60;100311.28;10503376;28;19935;-66
2022/07/14 08:53:23;;;;;;;;;;;;;;;22.79;66.45;100316.03;10503176;28;19973;-68
2022/07/14 08:58:26;;;;;;;;;;;;;;;22.80;66.22;100322.16;10502553;28;19924;-68
2022/07/14 09:03:31;;;;;;;;;;;;;;;22.68;64.15;100329.03;10502528;28;20251;-65
2022/07/14 09:08:55;;;;;;;;;;;;;;;22.70;64.10;100327.16;10502600;28;20273;-67
2022/07/14 09:14:08;;;;;;;;;;;;;;;22.85;63.57;100328.00;10502503;28;19931;-65
2022/07/14 09:19:13;;;;;;;;;;;;;;;22.77;62.43;100317.91;10502215;28;19925;-64
2022/07/14 09:24:16;;;;;;;;;;;;;;;22.89;61.99;100318.94;10501717;28;20345;-69
2022/07/14 09:29:20;;;;;;;;;;;;;;;23.01;62.38;100327.94;10502122;28;19981;-64
2022/07/14 09:34:27;;;;;;;;;;;;;;;23.16;61.70;100313.75;10501415;28;19924;-65
2022/07/14 09:39:30;;;;;;;;;;;;;;;23.32;59.69;100314.50;10501764;28;19924;-64
2022/07/14 09:44:33;;;;;;;;;;;;;;;23.29;59.12;100309.41;10501232;28;19924;-67
2022/07/14 09:49:39;;;;;;;;;;;;;;;23.52;60.84;100309.66;10501220;28;20334;-68
2022/07/14 09:55:02;;;;;;;;;;;;;;;23.71;59.25;100312.00;10501454;28;19924;-66
2022/07/14 10:00:10;;;;;;;;;;;;;;;23.93;57.44;100313.16;10501236;28;20250;-65
2022/07/14 10:05:14;;;;;;;;;;;;;;;33.63;37.42;100278.44;10501012;28;19967;-67
2022/07/14 10:10:20;;;;;;;;;;;;;;;41.79;26.02;100253.75;10502598;28;19953;-68
2022/07/14 10:15:24;;;;;;;;;;;;;;;39.28;25.50;100263.25;10509331;28;19928;-68
2022/07/14 10:20:32;;;;;;;;;;;;;;;31.66;34.51;100289.06;10509189;28;19928;-68
2022/07/14 10:25:35;;;;;;;;;;;;;;;29.13;35.67;100290.69;10509081;28;19944;-67
2022/07/14 10:30:45;;;;;;;;;;;;;;;28.47;36.01;100275.91;10509140;28;19928;-67
2022/07/14 10:35:57;;;;;;;;;;;;;;;28.21;36.86;100294.16;10508273;28;19924;-67
2022/07/14 10:41:05;;;;;;;;;;;;;;;28.22;37.71;100282.47;10508576;28;20360;-67
2022/07/14 10:46:08;;;;;;;;;;;;;;;28.19;38.30;100280.06;10508099;28;20299;-68
2022/07/14 10:51:21;;;;;;;;;;;;;;;28.29;38.61;100285.47;10508088;28;19925;-65
2022/07/14 10:56:26;;;;;;;;;;;;;;;28.42;39.45;100276.28;10507639;28;19925;-67
2022/07/14 11:01:28;;;;;;;;;;;;;;;28.30;38.37;100285.34;10507464;28;19924;-67
2022/07/14 11:06:33;;;;;;;;;;;;;;;27.95;39.09;100297.28;10507583;28;19925;-67
2022/07/14 11:11:59;;;;;;;;;;;;;;;28.18;39.33;100283.69;10507514;28;19932;-67
2022/07/14 11:17:02;;;;;;;;;;;;;;;28.22;38.99;100279.81;10506678;28;19930;-70
2022/07/14 11:22:22;;;;;;;;;;;;;;;27.65;39.68;100281.06;10506437;28;19931;-67
2022/07/14 11:27:29;;;;;;;;;;;;;;;27.69;40.25;100286.06;10506622;28;19934;-70
2022/07/14 11:32:33;;;;;;;;;;;;;;;27.66;39.85;100290.78;10506442;28;19925;-66
2022/07/14 11:37:55;;;;;;;;;;;;;;;27.61;40.23;100287.66;10506523;28;20223;-68
2022/07/14 11:43:13;;;;;;;;;;;;;;;27.66;40.04;100280.97;10506107;28;20274;-68
2022/07/14 11:48:17;;;;;;;;;;;;;;;28.41;39.68;100281.75;10505675;28;19946;-69
2022/07/14 11:53:22;;;;;;;;;;;;;;;29.06;38.00;100282.28;10505489;28;19939;-67
2022/07/14 11:58:26;;;;;;;;;;;;;;;29.37;37.67;100267.94;10505466;28;20277;-66
2022/07/14 12:03:29;;;;;;;;;;;;;;;29.96;37.43;100264.41;10505287;28;19977;-67
2022/07/14 12:08:36;;;;;;;;;;;;;;;29.15;37.83;100270.84;10505034;28;19939;-67
2022/07/14 12:13:46;;;;;;;;;;;;;;;29.90;38.08;100273.00;10504973;28;20246;-72
2022/07/14 12:18:52;;;;;;;;;;;;;;;29.90;36.50;100273.00;10504644;28;20011;-70
2022/07/14 12:23:57;;;;;;;;;;;;;;;29.95;36.33;100273.41;10504416;28;19925;-67
2022/07/14 12:29:01;;;;;;;;;;;;;;;30.58;35.82;100270.97;10504150;28;19974;-70
2022/07/14 12:34:05;;;;;;;;;;;;;;;30.79;35.31;100272.63;10503192;28;19924;-67
2022/07/14 12:39:10;;;;;;;;;;;;;;;31.08;33.72;100276.09;10503662;28;20374;-67
2022/07/14 12:44:13;;;;;;;;;;;;;;;31.01;32.63;100267.75;10503889;28;19925;-67
2022/07/14 12:49:16;;;;;;;;;;;;;;;31.49;32.52;100265.72;10503422;28;20262;-70
2022/07/14 12:54:31;;;;;;;;;;;;;;;31.35;32.61;100263.56;10503341;28;19924;-67
2022/07/14 12:59:55;;;;;;;;;;;;;;;31.35;31.58;100268.06;10502682;28;19925;-72
2022/07/14 13:05:00;;;;;;;;;;;;;;;30.54;32.46;100272.28;10502665;28;20338;-69
2022/07/14 13:10:12;;;;;;;;;;;;;;;31.02;31.29;100271.28;10502478;28;19924;-67
2022/07/14 13:15:16;;;;;;;;;;;;;;;31.25;31.63;100273.47;10502247;28;19935;-71
2022/07/14 13:20:38;;;;;;;;;;;;;;;31.40;31.62;100265.78;10501846;28;19935;-67
2022/07/14 13:25:45;;;;;;;;;;;;;;;31.39;32.68;100272.97;10501884;28;20358;-67
2022/07/14 13:30:48;;;;;;;;;;;;;;;31.50;32.25;100250.44;10501950;28;19924;-68
2022/07/14 13:35:52;;;;;;;;;;;;;;;31.34;31.79;100253.78;10501606;28;20246;-69
2022/07/14 13:40:57;;;;;;;;;;;;;;;30.87;32.20;100252.19;10501438;28;20322;-65
2022/07/14 13:46:00;;;;;;;;;;;;;;;30.37;32.38;100246.19;10501307;28;19924;-68
2022/07/14 13:56:27;;;;;;;;;;;;;;;30.51;32.14;100252.97;10501342;28;19924;-70
2022/07/14 14:01:30;;;;;;;;;;;;;;;30.62;31.91;100244.72;10500963;28;19924;-67
2022/07/14 14:06:33;;;;;;;;;;;;;;;30.75;32.25;100247.09;10501209;28;19924;-69
2022/07/14 14:11:38;;;;;;;;;;;;;;;30.45;32.66;100246.34;10500634;28;19935;-69
2022/07/14 14:16:41;;;;;;;;;;;;;;;30.31;32.40;100249.47;10500603;28;19925;-67
2022/07/14 14:21:51;;;;;;;;;;;;;;;30.06;31.85;100236.63;10500366;28;19924;-65
2022/07/14 14:26:55;;;;;;;;;;;;;;;29.80;30.87;100243.56;10500156;28;19935;-68
2022/07/14 14:31:58;;;;;;;;;;;;;;;29.46;31.75;100227.00;10500377;28;19925;-71
2022/07/14 14:37:02;;;;;;;;;;;;;;;29.62;33.63;100233.63;10500443;28;19924;-69
2022/07/14 14:42:07;;;;;;;;;;;;;;;29.53;34.14;100220.09;10500380;28;19924;-69
2022/07/14 14:47:10;;;;;;;;;;;;;;;29.34;34.88;100220.06;10499914;28;19924;-66
2022/07/14 14:52:13;;;;;;;;;;;;;;;29.44;35.17;100220.09;10499993;28;20360;-71
2022/07/14 14:57:17;;;;;;;;;;;;;;;29.24;34.70;100216.53;10503133;28;19924;-69
2022/07/14 15:02:22;;;;;;;;;;;;;;;29.19;36.21;100216.09;10507249;28;20011;-67
2022/07/14 15:07:26;;;;;;;;;;;;;;;29.10;36.67;100211.56;10507167;28;19924;-68
2022/07/14 15:12:30;;;;;;;;;;;;;;;28.81;35.13;100212.41;10507187;28;19934;-66
2022/07/14 15:17:34;;;;;;;;;;;;;;;28.57;35.62;100211.88;10507195;28;19924;-67
2022/07/14 15:22:37;;;;;;;;;;;;;;;28.53;37.03;100205.97;10506688;28;20349;-70
2022/07/14 15:27:41;;;;;;;;;;;;;;;28.48;36.52;100201.94;10506717;28;19930;-68
2022/07/14 15:32:44;;;;;;;;;;;;;;;28.24;36.50;100199.56;10506449;28;19925;-67
2022/07/14 15:37:47;;;;;;;;;;;;;;;28.13;36.83;100207.69;10506253;28;19924;-64
2022/07/14 15:42:52;;;;;;;;;;;;;;;28.13;37.19;100202.34;10506187;28;20237;-68
2022/07/14 15:47:55;;;;;;;;;;;;;;;28.09;37.45;100198.22;10505771;28;19924;-69
2022/07/14 15:52:58;;;;;;;;;;;;;;;27.86;36.19;100191.28;10506010;28;19956;-71
2022/07/14 15:58:02;;;;;;;;;;;;;;;27.65;35.27;100209.91;10505361;28;19934;-68
2022/07/14 16:03:05;;;;;;;;;;;;;;;27.52;35.77;100201.25;10505478;28;19925;-67
2022/07/14 16:08:09;;;;;;;;;;;;;;;27.36;35.77;100205.28;10504108;28;20360;-68
2022/07/14 16:13:13;;;;;;;;;;;;;;;27.20;35.67;100194.97;10504900;28;19950;-66
2022/07/14 16:18:16;;;;;;;;;;;;;;;27.09;35.07;100195.03;10504574;28;19924;-70
2022/07/14 16:23:20;;;;;;;;;;;;;;;27.02;34.62;100183.16;10504240;28;20249;-69
2022/07/14 16:28:24;;;;;;;;;;;;;;;26.76;35.00;100181.72;10504050;28;20007;-66
2022/07/14 16:33:27;;;;;;;;;;;;;;;26.61;35.96;100177.59;10504238;28;19925;-65
2022/07/14 16:38:30;;;;;;;;;;;;;;;26.51;36.51;100163.31;10503855;28;19935;-72
2022/07/14 16:43:35;;;;;;;;;;;;;;;26.40;37.49;100169.47;10503351;28;19928;-70
2022/07/14 16:48:38;;;;;;;;;;;;;;;26.16;37.23;100153.59;10503368;28;19925;-66
2022/07/14 16:53:42;;;;;;;;;;;;;;;26.09;37.74;100151.53;10502878;28;20242;-66
2022/07/14 16:58:47;;;;;;;;;;;;;;;25.99;38.17;100153.16;10503072;28;19925;-67
2022/07/14 17:03:50;;;;;;;;;;;;;;;25.83;38.28;100147.31;10502567;28;19924;-67
2022/07/14 17:08:53;;;;;;;;;;;;;;;25.74;38.58;100145.34;10502382;28;20040;-68
2022/07/14 17:13:59;;;;;;;;;;;;;;;25.59;38.72;100144.69;10502479;28;19934;-67
2022/07/14 17:19:03;;;;;;;;;;;;;;;25.43;38.70;100145.97;10502788;28;20012;-67
2022/07/14 17:24:07;;;;;;;;;;;;;;;25.30;38.84;100145.16;10501888;28;19924;-70
2022/07/14 17:29:11;;;;;;;;;;;;;;;25.22;39.18;100136.88;10501910;28;19924;-70
2022/07/14 17:34:15;;;;;;;;;;;;;;;25.11;39.59;100127.91;10501962;28;20014;-69
2022/07/14 17:39:21;;;;;;;;;;;;;;;25.02;39.99;100127.75;10501737;28;20330;-69
2022/07/14 17:44:25;;;;;;;;;;;;;;;24.83;39.96;100138.00;10501496;28;19935;-68
2022/07/14 17:49:28;;;;;;;;;;;;;;;24.71;40.41;100147.69;10500992;28;20007;-65
2022/07/14 17:54:31;;;;;;;;;;;;;;;24.63;41.01;100128.78;10501318;28;19924;-70
2022/07/14 17:59:36;;;;;;;;;;;;;;;24.55;41.57;100135.59;10501276;28;19928;-71
2022/07/14 18:04:39;;;;;;;;;;;;;;;24.47;42.49;100138.78;10501033;28;19928;-66
2022/07/14 18:09:42;;;;;;;;;;;;;;;24.41;43.03;100139.22;10500863;28;19924;-69
2022/07/14 18:14:47;;;;;;;;;;;;;;;24.34;43.23;100139.75;10500718;28;19925;-69
2022/07/14 18:19:50;;;;;;;;;;;;;;;24.26;44.04;100128.81;10500833;28;19924;-68
2022/07/14 18:24:53;;;;;;;;;;;;;;;24.16;44.40;100127.78;10500360;28;20246;-66
2022/07/14 18:29:58;;;;;;;;;;;;;;;24.05;44.53;100115.25;10500613;28;20258;-66
2022/07/14 18:35:01;;;;;;;;;;;;;;;23.93;44.06;100116.06;10508005;28;19973;-68
2022/07/14 18:40:05;;;;;;;;;;;;;;;23.90;43.80;100108.34;10508652;28;19964;-67
2022/07/14 18:50:30;;;;;;;;;;;;;;;23.77;45.59;100096.84;10508186;28;19925;-68
2022/07/14 18:55:33;;;;;;;;;;;;;;;23.67;46.29;100087.84;10508275;28;20350;-67
2022/07/14 19:00:38;;;;;;;;;;;;;;;23.57;47.06;100092.06;10507378;28;19934;-65
2022/07/14 19:05:41;;;;;;;;;;;;;;;23.49;47.50;100105.81;10507446;28;19924;-66
2022/07/14 19:10:44;;;;;;;;;;;;;;;23.41;47.84;100091.38;10507430;28;19932;-66
2022/07/14 19:15:49;;;;;;;;;;;;;;;23.33;48.50;100083.13;10507201;28;19924;-67
2022/07/14 19:20:52;;;;;;;;;;;;;;;23.24;48.89;100089.84;10506948;28;20098;-66
2022/07/14 19:25:55;;;;;;;;;;;;;;;23.18;48.79;100084.94;10506715;28;19928;-67
2022/07/14 19:31:00;;;;;;;;;;;;;;;23.11;48.65;100102.19;10506491;28;19935;-67
2022/07/14 19:36:03;;;;;;;;;;;;;;;23.03;49.24;100093.03;10506438;28;19924;-69
2022/07/14 19:41:06;;;;;;;;;;;;;;;22.91;50.18;100107.94;10506199;28;19925;-71
2022/07/14 19:46:14;;;;;;;;;;;;;;;22.80;51.06;100098.03;10505760;28;20018;-68
2022/07/14 19:51:18;;;;;;;;;;;;;;;22.72;49.49;100110.91;10505934;28;19924;-66
2022/07/14 19:56:21;;;;;;;;;;;;;;;22.70;48.80;100128.69;10506041;28;19932;-69
2022/07/14 20:01:26;;;;;;;;;;;;;;;22.67;49.13;100139.47;10505428;28;19935;-67
2022/07/14 20:06:29;;;;;;;;;;;;;;;22.66;49.62;100129.81;10504968;28;20019;-68
2022/07/14 20:11:32;;;;;;;;;;;;;;;22.60;49.78;100138.16;10505004;28;19924;-68
2022/07/14 20:16:36;;;;;;;;;;;;;;;22.57;49.65;100142.78;10504938;28;20360;-68
2022/07/14 20:21:39;;;;;;;;;;;;;;;22.52;49.53;100164.19;10504605;28;20250;-74
2022/07/14 20:26:42;;;;;;;;;;;;;;;22.44;49.72;100161.19;10504465;28;19924;-66
2022/07/14 20:37:22;;;;;;;;;;;;;;;22.30;51.53;100166.47;10417969;28;19925;-68
2022/07/14 20:42:25;;;;;;;;;;;;;;;22.25;52.31;100133.28;10484073;28;19924;-67
2022/07/14 20:47:30;;;;;;;;;;;;;;;22.20;53.02;100119.50;10504017;28;19935;-68
2022/07/14 20:52:33;;;;;;;;;;;;;;;22.15;53.27;100096.00;10503341;28;19934;-66
2022/07/14 20:57:36;;;;;;;;;;;;;;;22.12;53.54;100120.00;10502471;28;19946;-70
2022/07/14 21:02:41;;;;;;;;;;;;;;;22.08;53.40;100136.13;10503002;28;19928;-73
2022/07/14 21:07:44;;;;;;;;;;;;;;;22.00;53.57;100119.88;10502537;28;19924;-71
2022/07/14 21:12:47;;;;;;;;;;;;;;;21.94;53.73;100094.66;10502729;28;19928;-68
2022/07/14 21:17:52;;;;;;;;;;;;;;;21.90;54.28;100114.28;10502347;28;19924;-68
2022/07/14 21:22:55;;;;;;;;;;;;;;;21.87;54.32;100132.13;10502206;28;19924;-64
2022/07/14 21:27:58;;;;;;;;;;;;;;;21.83;54.29;100152.59;10502133;28;19924;-67
2022/07/14 21:33:02;;;;;;;;;;;;;;;21.78;54.04;100154.66;10502198;28;19924;-69
2022/07/14 21:38:05;;;;;;;;;;;;;;;21.74;54.45;100158.41;10502172;28;19925;-70
2022/07/14 21:43:08;;;;;;;;;;;;;;;21.71;54.76;100153.28;10501686;28;19924;-66
2022/07/14 21:48:12;;;;;;;;;;;;;;;21.63;55.65;100137.91;10501465;28;19933;-68
2022/07/14 21:53:15;;;;;;;;;;;;;;;21.59;55.83;100112.59;10501368;28;19933;-66
2022/07/14 21:58:18;;;;;;;;;;;;;;;21.56;56.62;100122.50;10501491;28;19925;-65
2022/07/14 22:03:23;;;;;;;;;;;;;;;21.52;55.48;100127.09;10501023;28;19935;-67
2022/07/14 22:08:26;;;;;;;;;;;;;;;21.44;55.63;100129.34;10500156;28;19925;-66
2022/07/14 22:13:29;;;;;;;;;;;;;;;21.36;55.91;100143.94;10500959;28;20348;-67
2022/07/14 22:18:33;;;;;;;;;;;;;;;21.30;56.32;100131.06;10501095;28;19924;-66
2022/07/14 22:23:36;;;;;;;;;;;;;;;21.27;56.57;100155.03;10501178;28;19989;-68
2022/07/14 22:28:39;;;;;;;;;;;;;;;21.28;56.90;100148.78;10500816;28;19928;-66
2022/07/14 22:33:44;;;;;;;;;;;;;;;21.21;57.42;100163.31;10500605;28;19928;-65
2022/07/14 22:38:47;;;;;;;;;;;;;;;21.15;57.10;100171.56;10500607;28;20011;-67
2022/07/14 22:43:50;;;;;;;;;;;;;;;21.15;57.65;100158.34;10500397;28;20326;-68
2022/07/14 22:48:56;;;;;;;;;;;;;;;21.10;57.99;100173.59;10500294;28;19935;-63
2022/07/14 22:54:05;;;;;;;;;;;;;;;21.05;58.03;100155.41;10500368;28;19956;-67
2022/07/14 22:59:08;;;;;;;;;;;;;;;20.93;58.22;100148.13;10500136;28;19935;-68
2022/07/14 23:04:13;;;;;;;;;;;;;;;20.89;58.12;100148.38;10500010;28;19925;-70
2022/07/14 23:09:19;;;;;;;;;;;;;;;20.85;58.71;100152.09;10499823;28;19924;-68
2022/07/14 23:14:22;;;;;;;;;;;;;;;20.74;58.84;100142.16;10499737;28;20340;-67
2022/07/14 23:19:30;;;;;;;;;;;;;;;20.69;58.72;100171.41;10504424;28;19967;-66
2022/07/14 23:24:33;;;;;;;;;;;;;;;20.62;58.58;100161.31;10506781;28;20385;-69
2022/07/14 23:29:36;;;;;;;;;;;;;;;20.59;57.98;100167.59;10506615;28;20026;-65
2022/07/14 23:34:40;;;;;;;;;;;;;;;20.59;58.57;100157.03;10506600;28;19967;-67
2022/07/14 23:39:43;;;;;;;;;;;;;;;20.53;58.91;100152.09;10506404;28;20058;-65
2022/07/14 23:44:46;;;;;;;;;;;;;;;20.42;58.94;100164.16;10506283;28;20020;-66
2022/07/14 23:49:50;;;;;;;;;;;;;;;20.39;59.10;100157.25;10506360;28;20003;-65
2022/07/14 23:54:54;;;;;;;;;;;;;;;20.32;59.50;100161.16;10506014;28;20022;-67
2022/07/14 23:59:57;;;;;;;;;;;;;;;20.32;58.84;100171.69;10505514;28;19968;-68
